createdAt,value
2023-01-27T00:02:02.050Z,0.00
2023-01-27T00:07:02.043Z,0.00
2023-01-27T00:12:01.952Z,0.00
2023-01-27T00:17:01.897Z,0.00
2023-01-27T00:22:01.821Z,0.00
2023-01-27T00:27:01.768Z,0.00
2023-01-27T00:32:01.696Z,0.00
2023-01-27T00:37:01.638Z,0.00
2023-01-27T00:42:01.560Z,0.00
2023-01-27T00:47:01.565Z,0.00
2023-01-27T00:52:01.435Z,0.00
2023-01-27T00:57:01.399Z,0.00
2023-01-27T01:02:01.379Z,0.00
2023-01-27T01:07:24.320Z,0.00
2023-01-27T01:12:16.736Z,0.00
2023-01-27T01:17:16.624Z,0.00
2023-01-27T01:22:16.613Z,0.00
2023-01-27T01:27:16.502Z,0.00
2023-01-27T01:32:16.468Z,0.00
2023-01-27T01:37:16.373Z,0.00
2023-01-27T01:42:16.327Z,0.00
2023-01-27T01:47:16.254Z,0.00
2023-01-27T01:52:16.210Z,0.00
2023-01-27T01:57:16.133Z,0.00
2023-01-27T02:02:16.132Z,0.00
2023-01-27T02:07:15.987Z,0.00
2023-01-27T02:12:15.945Z,0.00
2023-01-27T02:17:15.863Z,0.00
2023-01-27T02:22:15.849Z,0.00
2023-01-27T02:27:15.756Z,0.00
2023-01-27T02:32:15.705Z,0.00
2023-01-27T02:37:15.625Z,0.00
2023-01-27T02:42:15.571Z,0.00
2023-01-27T02:47:15.478Z,0.00
2023-01-27T02:52:15.431Z,0.00
2023-01-27T02:57:15.369Z,0.00
2023-01-27T03:02:15.304Z,0.00
2023-01-27T03:07:15.206Z,0.00
2023-01-27T03:12:15.177Z,0.00
2023-01-27T03:17:15.094Z,0.00
2023-01-27T03:22:15.071Z,0.00
2023-01-27T03:27:14.982Z,0.00
2023-01-27T03:32:15.052Z,0.00
2023-01-27T03:37:14.835Z,0.00
2023-01-27T03:42:14.791Z,0.00
2023-01-27T03:47:14.725Z,0.00
2023-01-27T03:52:14.668Z,0.00
2023-01-27T03:57:14.595Z,0.00
2023-01-27T04:02:14.540Z,0.00
2023-01-27T04:07:14.453Z,0.00
2023-01-27T04:12:14.408Z,0.00
2023-01-27T04:17:14.344Z,0.00
2023-01-27T04:22:14.287Z,0.00
2023-01-27T04:27:14.238Z,0.00
2023-01-27T04:32:14.134Z,0.00
2023-01-27T04:37:14.068Z,0.00
2023-01-27T04:42:14.040Z,0.00
2023-01-27T04:47:13.932Z,0.00
2023-01-27T04:52:14.236Z,0.00
2023-01-27T04:57:13.820Z,0.00
2023-01-27T05:02:13.767Z,0.00
2023-01-27T05:07:13.688Z,0.00
2023-01-27T05:12:13.648Z,0.00
2023-01-27T05:17:25.998Z,0.00
2023-01-27T05:22:18.403Z,0.00
2023-01-27T05:27:18.340Z,0.00
2023-01-27T05:32:18.271Z,0.00
2023-01-27T05:37:18.187Z,0.00
2023-01-27T05:42:18.137Z,0.00
2023-01-27T05:47:18.108Z,0.00
2023-01-27T05:52:18.003Z,0.00
2023-01-27T05:57:17.960Z,0.00
2023-01-27T06:02:17.884Z,0.00
2023-01-27T06:07:17.819Z,0.00
2023-01-27T06:12:17.751Z,0.00
2023-01-27T06:17:17.714Z,0.00
2023-01-27T06:22:17.657Z,0.00
2023-01-27T06:27:17.583Z,0.00
2023-01-27T06:32:17.491Z,0.00
2023-01-27T06:37:17.450Z,0.00
2023-01-27T06:42:17.373Z,4.00
2023-01-27T06:47:17.338Z,4.00
2023-01-27T06:52:17.242Z,4.00
2023-01-27T06:57:17.198Z,20.00
2023-01-27T07:02:17.180Z,44.00
2023-01-27T07:07:17.058Z,68.00
2023-01-27T07:12:17.012Z,80.00
2023-01-27T07:17:16.941Z,120.00
2023-01-27T07:22:16.853Z,200.00
2023-01-27T07:27:16.827Z,284.00
2023-01-27T07:32:16.730Z,312.00
2023-01-27T07:37:16.690Z,416.00
2023-01-27T07:42:16.598Z,600.00
2023-01-27T07:47:16.564Z,764.00
2023-01-27T07:52:16.541Z,876.00
2023-01-27T07:57:16.413Z,912.00
2023-01-27T08:02:16.372Z,852.00
2023-01-27T08:07:16.293Z,1008.00
2023-01-27T08:12:16.228Z,964.00
2023-01-27T08:17:16.180Z,760.00
2023-01-27T08:22:16.069Z,668.00
2023-01-27T08:27:16.041Z,696.00
2023-01-27T08:32:15.969Z,588.00
2023-01-27T08:37:15.936Z,568.00
2023-01-27T08:42:15.827Z,524.00
2023-01-27T08:47:15.806Z,532.00
2023-01-27T08:52:15.703Z,564.00
2023-01-27T08:57:15.653Z,732.00
2023-01-27T09:02:15.612Z,808.00
2023-01-27T09:07:15.533Z,844.00
2023-01-27T09:12:15.460Z,804.00
2023-01-27T09:17:15.397Z,944.00
2023-01-27T09:22:15.317Z,1448.00
2023-01-27T09:27:15.263Z,1580.00
2023-01-27T09:32:15.235Z,1524.00
2023-01-27T09:37:15.143Z,1288.00
2023-01-27T09:42:15.060Z,1524.00
2023-01-27T09:47:15.003Z,2756.00
2023-01-27T09:52:14.925Z,6128.00
2023-01-27T09:57:14.893Z,3264.00
2023-01-27T10:02:14.797Z,2312.00
2023-01-27T10:07:14.758Z,1896.00
2023-01-27T10:12:14.677Z,2128.00
2023-01-27T10:17:14.637Z,2176.00
2023-01-27T10:22:14.568Z,2064.00
2023-01-27T10:27:14.496Z,1720.00
2023-01-27T10:32:14.409Z,1600.00
2023-01-27T10:37:14.349Z,1300.00
2023-01-27T10:42:14.262Z,1224.00
2023-01-27T10:47:14.220Z,1060.00
2023-01-27T10:52:14.140Z,1108.00
2023-01-27T10:57:14.093Z,1140.00
2023-01-27T11:02:14.108Z,1452.00
2023-01-27T11:07:13.944Z,2036.00
2023-01-27T11:12:13.896Z,2112.00
2023-01-27T11:17:13.843Z,2452.00
2023-01-27T11:22:13.740Z,4264.00
2023-01-27T11:27:13.693Z,5512.00
2023-01-27T11:32:13.669Z,7520.00
2023-01-27T11:37:13.563Z,7304.00
2023-01-27T11:42:13.798Z,7552.00
2023-01-27T11:47:13.447Z,8436.00
2023-01-27T11:52:13.381Z,6108.00
2023-01-27T11:57:13.317Z,6484.00
2023-01-27T12:02:13.210Z,5392.00
2023-01-27T12:07:13.179Z,3732.00
2023-01-27T12:12:13.101Z,4000.00
2023-01-27T12:17:13.052Z,5716.00
2023-01-27T12:22:12.959Z,4468.00
2023-01-27T12:27:12.914Z,3568.00
2023-01-27T12:32:12.864Z,3492.00
2023-01-27T12:37:12.775Z,3924.00
2023-01-27T12:42:12.696Z,5432.00
2023-01-27T12:47:12.624Z,5156.00
2023-01-27T12:52:12.568Z,4064.00
2023-01-27T12:57:12.519Z,2992.00
2023-01-27T13:02:12.486Z,2376.00
2023-01-27T13:07:12.395Z,1852.00
2023-01-27T13:12:12.295Z,1976.00
2023-01-27T13:17:12.265Z,1828.00
2023-01-27T13:22:12.258Z,1872.00
2023-01-27T13:27:12.123Z,1796.00
2023-01-27T13:32:12.065Z,1832.00
2023-01-27T13:37:12.032Z,1664.00
2023-01-27T13:42:12.002Z,1448.00
2023-01-27T13:47:11.888Z,1512.00
2023-01-27T13:52:11.780Z,1756.00
2023-01-27T13:57:11.721Z,1796.00
2023-01-27T14:02:11.658Z,1804.00
2023-01-27T14:07:11.744Z,1680.00
2023-01-27T14:12:11.523Z,1552.00
2023-01-27T14:17:11.572Z,1268.00
2023-01-27T14:22:11.364Z,1280.00
2023-01-27T14:27:11.348Z,1352.00
2023-01-27T14:32:11.276Z,880.00
2023-01-27T14:37:11.227Z,672.00
2023-01-27T14:42:11.125Z,532.00
2023-01-27T14:47:11.077Z,524.00
2023-01-27T14:52:10.989Z,580.00
2023-01-27T14:57:10.934Z,432.00
2023-01-27T15:02:10.968Z,336.00
2023-01-27T15:07:10.811Z,368.00
2023-01-27T15:12:10.715Z,292.00
2023-01-27T15:17:10.685Z,404.00
2023-01-27T15:22:10.587Z,420.00
2023-01-27T15:27:10.545Z,404.00
2023-01-27T15:32:10.549Z,372.00
2023-01-27T15:37:10.481Z,336.00
2023-01-27T15:42:10.336Z,312.00
2023-01-27T15:47:10.291Z,260.00
2023-01-27T15:52:10.189Z,204.00
2023-01-27T15:57:10.152Z,176.00
2023-01-27T16:02:10.119Z,124.00
2023-01-27T16:07:10.014Z,76.00
2023-01-27T16:12:09.944Z,52.00
2023-01-27T16:17:09.867Z,40.00
2023-01-27T16:22:09.831Z,24.00
2023-01-27T16:27:09.712Z,12.00
2023-01-27T16:32:09.677Z,8.00
2023-01-27T16:37:09.611Z,4.00
2023-01-27T16:42:09.555Z,0.00
2023-01-27T16:47:16.471Z,0.00
2023-01-27T16:52:10.420Z,0.00
2023-01-27T16:57:09.392Z,0.00
2023-01-27T17:02:09.279Z,0.00
2023-01-27T17:07:11.749Z,0.00
2023-01-27T17:12:09.166Z,0.00
2023-01-27T17:17:09.156Z,0.00
2023-01-27T17:22:09.024Z,0.00
2023-01-27T17:27:08.966Z,0.00
2023-01-27T17:32:09.012Z,0.00
2023-01-27T17:37:08.815Z,0.00
2023-01-27T17:42:08.784Z,0.00
2023-01-27T17:47:08.677Z,0.00
2023-01-27T17:52:08.627Z,0.00
2023-01-27T17:57:08.552Z,0.00
2023-01-27T18:02:08.508Z,0.00
2023-01-27T18:07:08.521Z,0.00
2023-01-27T18:12:08.360Z,0.00
2023-01-27T18:17:08.339Z,0.00
2023-01-27T18:22:08.272Z,0.00
2023-01-27T18:27:08.190Z,0.00
2023-01-27T18:32:08.113Z,0.00
2023-01-27T18:37:08.028Z,0.00
2023-01-27T18:42:07.988Z,0.00
2023-01-27T18:47:07.911Z,0.00
2023-01-27T18:52:07.855Z,0.00
2023-01-27T18:57:07.810Z,0.00
2023-01-27T19:02:07.800Z,0.00
2023-01-27T19:07:07.644Z,0.00
2023-01-27T19:12:07.603Z,0.00
2023-01-27T19:17:07.530Z,0.00
2023-01-27T19:22:07.482Z,0.00
2023-01-27T19:27:07.413Z,0.00
2023-01-27T19:32:07.382Z,0.00
2023-01-27T19:37:07.267Z,0.00
2023-01-27T19:42:07.214Z,0.00
2023-01-27T19:47:07.147Z,0.00
2023-01-27T19:52:07.103Z,0.00
2023-01-27T19:57:07.005Z,0.00
2023-01-27T20:02:07.000Z,0.00
2023-01-27T20:07:06.909Z,0.00
2023-01-27T20:12:06.840Z,0.00
2023-01-27T20:17:06.775Z,0.00
2023-01-27T20:22:06.733Z,0.00
2023-01-27T20:27:06.638Z,0.00
2023-01-27T20:32:06.674Z,0.00
2023-01-27T20:37:06.528Z,0.00
2023-01-27T20:42:06.451Z,0.00
2023-01-27T20:47:06.401Z,0.00
2023-01-27T20:52:06.320Z,0.00
2023-01-27T20:57:06.241Z,0.00
2023-01-27T21:02:06.185Z,0.00
2023-01-27T21:07:06.133Z,0.00
2023-01-27T21:12:06.055Z,0.00
2023-01-27T21:17:05.976Z,0.00
2023-01-27T21:22:05.940Z,0.00
2023-01-27T21:27:05.856Z,0.00
2023-01-27T21:32:05.807Z,0.00
2023-01-27T21:37:05.741Z,0.00
2023-01-27T21:42:05.687Z,0.00
2023-01-27T21:47:05.608Z,0.00
2023-01-27T21:52:05.529Z,0.00
2023-01-27T21:57:05.473Z,0.00
2023-01-27T22:02:05.421Z,0.00
2023-01-27T22:07:05.352Z,0.00
2023-01-27T22:12:05.318Z,0.00
2023-01-27T22:17:05.220Z,0.00
2023-01-27T22:22:05.189Z,0.00
2023-01-27T22:27:05.079Z,0.00
2023-01-27T22:32:05.054Z,0.00
2023-01-27T22:37:04.967Z,0.00
2023-01-27T22:42:04.924Z,0.00
2023-01-27T22:47:04.882Z,0.00
2023-01-27T22:52:04.785Z,0.00
2023-01-27T22:57:04.724Z,0.00
2023-01-27T23:02:04.663Z,0.00
2023-01-27T23:07:04.589Z,0.00
2023-01-27T23:12:04.536Z,0.00
2023-01-27T23:17:04.424Z,0.00
2023-01-27T23:22:04.395Z,0.00
2023-01-27T23:27:04.327Z,0.00
2023-01-27T23:32:04.319Z,0.00
2023-01-27T23:37:04.216Z,0.00
2023-01-27T23:42:04.131Z,0.00
2023-01-27T23:47:04.074Z,0.00
2023-01-27T23:52:04.009Z,0.00
2023-01-27T23:57:03.917Z,0.00
